Time;durP1;ratioP1;P1;durP2;ratioP2;P2;SDS_P1;SDS_P2;PMS_P1;PMS_P2;Temp;Humidity;BMP_temperature;BMP_pressure;BME280_temperature;BME280_humidity;BME280_pressure;Samples;Min_cycle;Max_cycle;Signal;HPM_P1;HPM_P2
2023/08/20 00:02:11;;;;;;;7.80;3.28;;;;;;;;;;4922381;28;20667;-74
2023/08/20 00:04:37;;;;;;;6.97;3.30;;;;;;;;;;4922351;29;20044;-74
2023/08/20 00:07:03;;;;;;;7.07;3.50;;;;;;;;;;4922590;29;20669;-73
2023/08/20 00:09:30;;;;;;;8.90;3.60;;;;;;;;;;4921079;28;20055;-74
2023/08/20 00:11:55;;;;;;;4.90;3.47;;;;;;;;;;4922279;29;20075;-74
2023/08/20 00:14:54;;;;;;;5.53;3.40;;;;;;;;;;4922373;28;20100;-73
2023/08/20 00:17:20;;;;;;;5.43;3.40;;;;;;;;;;4920954;29;20048;-74
2023/08/20 00:19:45;;;;;;;5.35;3.15;;;;;;;;;;4921380;28;20043;-73
2023/08/20 00:22:11;;;;;;;6.88;3.45;;;;;;;;;;4904909;29;20055;-73
2023/08/20 00:24:37;;;;;;;8.52;3.78;;;;;;;;;;4921798;29;20428;-74
2023/08/20 00:27:02;;;;;;;6.80;3.47;;;;;;;;;;4922166;28;20055;-74
2023/08/20 00:29:28;;;;;;;4.30;3.67;;;;;;;;;;4904472;29;20043;-74
2023/08/20 00:31:54;;;;;;;5.07;3.10;;;;;;;;;;4921221;28;20056;-74
2023/08/20 00:34:19;;;;;;;4.28;3.10;;;;;;;;;;4922058;29;20040;-74
2023/08/20 00:36:45;;;;;;;6.03;3.60;;;;;;;;;;4904701;29;20487;-74
2023/08/20 00:39:11;;;;;;;3.67;3.17;;;;;;;;;;4904315;29;20062;-74
2023/08/20 00:41:37;;;;;;;9.43;4.05;;;;;;;;;;4904120;29;20055;-74
2023/08/20 00:44:03;;;;;;;5.63;4.05;;;;;;;;;;4904895;29;20077;-74
2023/08/20 00:46:29;;;;;;;6.95;4.00;;;;;;;;;;4904102;29;20067;-74
2023/08/20 00:48:56;;;;;;;8.60;3.90;;;;;;;;;;4905053;29;20107;-74
2023/08/20 00:51:22;;;;;;;4.95;4.03;;;;;;;;;;4903638;29;20769;-74
2023/08/20 00:53:48;;;;;;;5.35;3.85;;;;;;;;;;4920872;29;20047;-74
2023/08/20 00:56:15;;;;;;;4.80;4.18;;;;;;;;;;4921609;28;20047;-74
2023/08/20 00:58:41;;;;;;;9.25;4.15;;;;;;;;;;4904533;29;20489;-74
2023/08/20 01:01:07;;;;;;;6.68;3.70;;;;;;;;;;4921571;29;20122;-74
2023/08/20 01:03:32;;;;;;;6.38;3.92;;;;;;;;;;4903150;29;20545;-74
2023/08/20 01:06:12;;;;;;;6.68;3.90;;;;;;;;;;4904641;29;20082;-74
2023/08/20 01:08:40;;;;;;;6.35;4.38;;;;;;;;;;4904686;29;20087;-73
2023/08/20 01:11:26;;;;;;;6.70;4.50;;;;;;;;;;4922149;29;20125;-73
2023/08/20 01:13:54;;;;;;;6.82;4.28;;;;;;;;;;4905968;29;20560;-74
2023/08/20 01:16:20;;;;;;;5.90;4.28;;;;;;;;;;4903774;29;20409;-74
2023/08/20 01:18:46;;;;;;;7.40;4.28;;;;;;;;;;4921683;28;20583;-74
2023/08/20 01:21:39;;;;;;;8.07;4.60;;;;;;;;;;4920789;29;20050;-74
2023/08/20 01:24:05;;;;;;;6.82;4.32;;;;;;;;;;4916397;28;20123;-73
2023/08/20 01:26:55;;;;;;;5.90;4.20;;;;;;;;;;4919654;29;20051;-74
2023/08/20 01:29:21;;;;;;;5.68;4.40;;;;;;;;;;4902191;29;20526;-74
2023/08/20 01:31:47;;;;;;;4.85;4.18;;;;;;;;;;4905266;28;20054;-73
2023/08/20 01:34:15;;;;;;;9.52;4.50;;;;;;;;;;4919960;29;20043;-72
2023/08/20 01:36:41;;;;;;;8.50;5.07;;;;;;;;;;4915272;28;20553;-74
2023/08/20 01:39:09;;;;;;;7.28;4.65;;;;;;;;;;4903560;29;20051;-77
2023/08/20 01:41:35;;;;;;;5.57;4.35;;;;;;;;;;4903930;29;20047;-73
2023/08/20 01:44:01;;;;;;;7.20;5.00;;;;;;;;;;4921062;29;20055;-74
2023/08/20 01:46:26;;;;;;;9.57;5.47;;;;;;;;;;4902827;29;20143;-73
2023/08/20 01:48:51;;;;;;;7.95;4.85;;;;;;;;;;4921289;28;20051;-73
2023/08/20 01:51:17;;;;;;;10.88;4.88;;;;;;;;;;4906358;29;20190;-75
2023/08/20 01:53:42;;;;;;;6.65;4.97;;;;;;;;;;4924691;28;20082;-75
2023/08/20 01:56:12;;;;;;;6.63;5.38;;;;;;;;;;4907105;29;20052;-73
2023/08/20 01:58:38;;;;;;;8.13;5.00;;;;;;;;;;4907429;29;20126;-74
2023/08/20 02:01:04;;;;;;;11.80;4.97;;;;;;;;;;4907397;29;20055;-75
2023/08/20 02:03:31;;;;;;;8.60;4.53;;;;;;;;;;4923805;29;20056;-73
2023/08/20 02:05:56;;;;;;;5.80;4.57;;;;;;;;;;4907447;29;20051;-73
2023/08/20 02:08:22;;;;;;;7.28;4.85;;;;;;;;;;4923989;29;20693;-74
2023/08/20 02:10:47;;;;;;;10.07;4.78;;;;;;;;;;4907158;29;20040;-72
2023/08/20 02:13:12;;;;;;;7.97;4.32;;;;;;;;;;4923473;29;20039;-74
2023/08/20 02:15:38;;;;;;;5.57;3.78;;;;;;;;;;4907104;29;20059;-74
2023/08/20 02:18:04;;;;;;;6.95;3.80;;;;;;;;;;4906806;29;20046;-74
2023/08/20 02:20:29;;;;;;;8.63;4.15;;;;;;;;;;4924460;29;20683;-73
2023/08/20 02:22:55;;;;;;;6.20;4.43;;;;;;;;;;4924507;28;20047;-74
2023/08/20 02:25:20;;;;;;;10.57;4.60;;;;;;;;;;4906815;29;20046;-74
2023/08/20 02:27:46;;;;;;;5.95;4.20;;;;;;;;;;4906947;29;20052;-73
2023/08/20 02:30:13;;;;;;;6.80;4.32;;;;;;;;;;4923618;29;20047;-73
2023/08/20 02:32:39;;;;;;;11.50;3.95;;;;;;;;;;4907017;29;20516;-74
2023/08/20 02:35:05;;;;;;;7.55;4.05;;;;;;;;;;4924165;28;20051;-74
2023/08/20 02:37:32;;;;;;;6.53;3.20;;;;;;;;;;4923570;29;20063;-73
2023/08/20 02:39:57;;;;;;;5.82;3.40;;;;;;;;;;4923938;28;20035;-74
2023/08/20 02:42:22;;;;;;;8.40;3.50;;;;;;;;;;4906685;29;20110;-74
2023/08/20 02:44:48;;;;;;;9.00;3.10;;;;;;;;;;4924320;29;20043;-73
2023/08/20 02:47:13;;;;;;;3.95;2.90;;;;;;;;;;4923287;28;20043;-74
2023/08/20 02:49:39;;;;;;;5.45;3.35;;;;;;;;;;4924023;29;20051;-74
2023/08/20 02:52:04;;;;;;;4.97;3.40;;;;;;;;;;4923144;28;20058;-73
2023/08/20 02:54:32;;;;;;;6.15;3.72;;;;;;;;;;4906351;29;20043;-74
2023/08/20 02:56:58;;;;;;;10.63;3.38;;;;;;;;;;4906468;29;20513;-74
2023/08/20 02:59:24;;;;;;;6.22;3.38;;;;;;;;;;4906041;29;20047;-75
2023/08/20 03:01:49;;;;;;;10.15;3.80;;;;;;;;;;4904117;29;20042;-73
2023/08/20 03:04:15;;;;;;;6.63;3.40;;;;;;;;;;4906670;29;20559;-73
2023/08/20 03:06:40;;;;;;;7.93;3.30;;;;;;;;;;4906228;29;20119;-74
2023/08/20 03:09:06;;;;;;;4.35;3.38;;;;;;;;;;4923672;28;20052;-75
2023/08/20 03:11:31;;;;;;;4.68;3.17;;;;;;;;;;4905454;29;20455;-73
2023/08/20 03:13:56;;;;;;;6.32;3.03;;;;;;;;;;4905830;29;20690;-73
2023/08/20 03:16:22;;;;;;;9.10;3.22;;;;;;;;;;4905969;29;20055;-73
2023/08/20 03:18:48;;;;;;;5.13;3.15;;;;;;;;;;4906146;29;20079;-73
2023/08/20 03:21:13;;;;;;;5.53;3.95;;;;;;;;;;4922402;28;20055;-74
2023/08/20 03:23:39;;;;;;;4.78;2.95;;;;;;;;;;4905551;29;20052;-74
2023/08/20 03:26:05;;;;;;;5.60;3.60;;;;;;;;;;4923383;28;20147;-73
2023/08/20 03:28:31;;;;;;;7.75;2.90;;;;;;;;;;4905823;29;20158;-73
2023/08/20 03:31:01;;;;;;;7.45;3.08;;;;;;;;;;4905986;29;20192;-74
2023/08/20 03:33:28;;;;;;;6.13;3.20;;;;;;;;;;4904360;29;20143;-74
2023/08/20 03:35:53;;;;;;;6.32;3.28;;;;;;;;;;4902912;29;20452;-74
2023/08/20 03:38:19;;;;;;;7.70;3.25;;;;;;;;;;4923101;28;20123;-74
2023/08/20 03:40:45;;;;;;;4.00;2.60;;;;;;;;;;4922650;29;20130;-74
2023/08/20 03:43:10;;;;;;;5.30;3.20;;;;;;;;;;4904520;28;20499;-73
2023/08/20 03:45:36;;;;;;;6.57;3.42;;;;;;;;;;4903399;29;20119;-74
2023/08/20 03:48:01;;;;;;;7.10;3.20;;;;;;;;;;4905547;29;20039;-73
2023/08/20 03:50:28;;;;;;;7.80;3.03;;;;;;;;;;4905992;29;20055;-74
2023/08/20 03:52:54;;;;;;;8.07;3.53;;;;;;;;;;4905272;29;20050;-74
2023/08/20 03:55:19;;;;;;;6.55;3.10;;;;;;;;;;4922009;28;20048;-74
2023/08/20 03:57:44;;;;;;;5.45;3.10;;;;;;;;;;4902180;29;20453;-74
2023/08/20 04:00:12;;;;;;;5.72;2.70;;;;;;;;;;4905420;29;20043;-75
2023/08/20 04:02:45;;;;;;;7.63;2.65;;;;;;;;;;4905010;29;20063;-74
2023/08/20 04:05:10;;;;;;;8.45;3.10;;;;;;;;;;4905126;29;20048;-75
2023/08/20 04:07:36;;;;;;;4.65;2.83;;;;;;;;;;4921540;28;20039;-74
2023/08/20 04:10:01;;;;;;;7.32;3.00;;;;;;;;;;4922747;29;20063;-74
2023/08/20 04:12:27;;;;;;;5.85;3.00;;;;;;;;;;4904506;29;20053;-73
2023/08/20 04:14:55;;;;;;;6.53;3.72;;;;;;;;;;4906457;29;20047;-74
2023/08/20 04:17:21;;;;;;;5.55;2.75;;;;;;;;;;4906992;29;20445;-75
2023/08/20 04:19:46;;;;;;;5.28;2.90;;;;;;;;;;4922084;28;20048;-74
2023/08/20 04:22:12;;;;;;;3.88;3.03;;;;;;;;;;4905324;29;20130;-74
2023/08/20 04:24:39;;;;;;;8.25;3.50;;;;;;;;;;4904750;29;20078;-75
2023/08/20 04:27:05;;;;;;;8.23;3.00;;;;;;;;;;4922078;28;20094;-75
2023/08/20 04:29:31;;;;;;;5.43;2.80;;;;;;;;;;4887856;29;20600;-75
2023/08/20 04:31:56;;;;;;;7.15;3.50;;;;;;;;;;4904011;29;20047;-74
2023/08/20 04:34:22;;;;;;;9.88;2.88;;;;;;;;;;4904690;29;20039;-74
2023/08/20 04:36:51;;;;;;;6.03;2.80;;;;;;;;;;4904283;29;20040;-75
2023/08/20 04:39:18;;;;;;;6.55;3.10;;;;;;;;;;4904017;29;20059;-74
2023/08/20 04:41:47;;;;;;;12.40;3.33;;;;;;;;;;4904066;29;20051;-73
2023/08/20 04:44:15;;;;;;;4.22;2.75;;;;;;;;;;4904687;29;20110;-75
2023/08/20 04:46:43;;;;;;;6.55;3.25;;;;;;;;;;4904537;29;20044;-73
2023/08/20 04:49:08;;;;;;;8.15;3.58;;;;;;;;;;4904227;29;20420;-75
2023/08/20 04:51:34;;;;;;;4.45;3.08;;;;;;;;;;4903230;29;20056;-74
2023/08/20 04:53:59;;;;;;;6.07;2.65;;;;;;;;;;4904275;29;20078;-75
2023/08/20 04:56:25;;;;;;;7.85;3.45;;;;;;;;;;4904620;29;20497;-73
2023/08/20 04:58:52;;;;;;;3.83;2.90;;;;;;;;;;4904455;29;20119;-74
2023/08/20 05:01:39;;;;;;;5.18;2.95;;;;;;;;;;4890887;29;20752;-73
2023/08/20 05:04:04;;;;;;;6.63;2.85;;;;;;;;;;4903954;29;20039;-74
2023/08/20 05:06:30;;;;;;;5.70;3.35;;;;;;;;;;4896144;29;20069;-74
2023/08/20 05:08:55;;;;;;;3.83;3.15;;;;;;;;;;4904605;29;20085;-75
2023/08/20 05:11:21;;;;;;;6.40;3.03;;;;;;;;;;4903138;29;20039;-74
2023/08/20 05:13:49;;;;;;;8.93;3.08;;;;;;;;;;4903597;29;20061;-75
2023/08/20 05:16:14;;;;;;;5.10;2.72;;;;;;;;;;4921450;29;20493;-74
2023/08/20 05:18:40;;;;;;;5.88;3.08;;;;;;;;;;4904296;29;20059;-75
2023/08/20 05:21:05;;;;;;;4.78;2.65;;;;;;;;;;4904310;29;20501;-74
2023/08/20 05:23:31;;;;;;;6.82;2.70;;;;;;;;;;4920454;29;20119;-75
2023/08/20 05:25:56;;;;;;;5.50;2.70;;;;;;;;;;4923934;28;20047;-75
2023/08/20 05:28:22;;;;;;;4.63;3.13;;;;;;;;;;4907686;29;20119;-73
2023/08/20 05:30:56;;;;;;;3.88;3.00;;;;;;;;;;4924667;29;20083;-75
2023/08/20 05:33:23;;;;;;;5.65;3.22;;;;;;;;;;4906833;29;20142;-74
2023/08/20 05:35:49;;;;;;;6.57;3.10;;;;;;;;;;4907495;29;20198;-75
2023/08/20 05:38:15;;;;;;;5.22;3.08;;;;;;;;;;4907661;29;20047;-74
2023/08/20 05:40:41;;;;;;;7.85;3.50;;;;;;;;;;4907753;29;20050;-74
2023/08/20 05:43:07;;;;;;;6.22;3.15;;;;;;;;;;4907806;29;20044;-74
2023/08/20 05:45:32;;;;;;;7.38;3.30;;;;;;;;;;4907202;29;20074;-73
2023/08/20 05:47:58;;;;;;;4.90;3.40;;;;;;;;;;4907788;29;20047;-74
2023/08/20 05:50:24;;;;;;;3.58;2.83;;;;;;;;;;4906563;29;20055;-75
2023/08/20 05:52:49;;;;;;;4.18;2.88;;;;;;;;;;4907190;29;20497;-76
2023/08/20 05:55:15;;;;;;;6.88;3.13;;;;;;;;;;4907154;28;20118;-74
2023/08/20 05:57:42;;;;;;;5.22;3.20;;;;;;;;;;4907946;29;20147;-74
2023/08/20 06:00:09;;;;;;;9.73;3.28;;;;;;;;;;4923798;29;20036;-74
2023/08/20 06:02:40;;;;;;;6.60;3.05;;;;;;;;;;4922766;28;20130;-73
2023/08/20 06:05:07;;;;;;;4.68;3.00;;;;;;;;;;4905416;29;20070;-75
2023/08/20 06:07:33;;;;;;;8.98;3.53;;;;;;;;;;4916681;28;20047;-76
2023/08/20 06:09:58;;;;;;;6.28;3.53;;;;;;;;;;4923724;29;20047;-74
2023/08/20 06:12:24;;;;;;;5.47;3.47;;;;;;;;;;4923660;29;20040;-75
2023/08/20 06:14:49;;;;;;;5.25;3.45;;;;;;;;;;4923729;28;20095;-74
2023/08/20 06:17:15;;;;;;;11.05;3.33;;;;;;;;;;4922956;29;20047;-75
2023/08/20 06:19:41;;;;;;;4.97;3.42;;;;;;;;;;4924633;28;20081;-73
2023/08/20 06:22:06;;;;;;;6.50;2.90;;;;;;;;;;4906708;29;20156;-75
2023/08/20 06:24:32;;;;;;;10.48;3.30;;;;;;;;;;4923539;29;20052;-76
2023/08/20 06:26:57;;;;;;;3.53;3.15;;;;;;;;;;4923840;28;20047;-76
2023/08/20 06:29:23;;;;;;;8.63;3.50;;;;;;;;;;4924936;29;20048;-76
2023/08/20 06:31:48;;;;;;;6.60;3.30;;;;;;;;;;4917756;28;20067;-75
2023/08/20 06:34:14;;;;;;;4.10;3.17;;;;;;;;;;4920900;29;20516;-74
2023/08/20 06:36:40;;;;;;;3.90;3.08;;;;;;;;;;4921196;29;20483;-74
2023/08/20 06:39:06;;;;;;;6.30;3.17;;;;;;;;;;4905014;29;20142;-73
2023/08/20 06:41:31;;;;;;;8.30;2.85;;;;;;;;;;4920967;29;20055;-73
2023/08/20 06:43:57;;;;;;;7.43;2.75;;;;;;;;;;4921718;28;20055;-75
2023/08/20 06:46:22;;;;;;;5.20;2.95;;;;;;;;;;4921517;29;20094;-75
2023/08/20 06:48:47;;;;;;;8.35;3.03;;;;;;;;;;4921655;29;20055;-73
2023/08/20 06:51:15;;;;;;;6.18;2.58;;;;;;;;;;4920638;28;20043;-75
2023/08/20 06:53:40;;;;;;;8.68;3.13;;;;;;;;;;4921389;29;20131;-72
2023/08/20 06:56:11;;;;;;;4.55;2.70;;;;;;;;;;4921821;28;20040;-73
2023/08/20 06:58:37;;;;;;;5.13;2.78;;;;;;;;;;4922306;29;20057;-73
2023/08/20 07:01:09;;;;;;;4.60;2.88;;;;;;;;;;4921978;29;20051;-72
2023/08/20 07:03:38;;;;;;;6.28;2.90;;;;;;;;;;4881123;29;20655;-75
2023/08/20 07:06:03;;;;;;;7.70;3.30;;;;;;;;;;4921519;29;20501;-73
2023/08/20 07:08:29;;;;;;;5.30;2.80;;;;;;;;;;4921530;28;20579;-73
2023/08/20 07:10:54;;;;;;;8.10;3.05;;;;;;;;;;4921748;29;20051;-74
2023/08/20 07:13:20;;;;;;;9.20;2.90;;;;;;;;;;4920900;28;20066;-73
2023/08/20 07:15:46;;;;;;;6.78;3.42;;;;;;;;;;4921385;29;20043;-74
2023/08/20 07:18:13;;;;;;;5.88;3.00;;;;;;;;;;4926806;29;20039;-73
2023/08/20 07:20:44;;;;;;;4.22;2.80;;;;;;;;;;4930448;29;20130;-75
2023/08/20 07:23:11;;;;;;;5.95;3.22;;;;;;;;;;4923076;29;20032;-73
2023/08/20 07:25:37;;;;;;;6.70;3.17;;;;;;;;;;4920965;29;20110;-74
2023/08/20 07:28:04;;;;;;;10.07;3.38;;;;;;;;;;4921873;29;20147;-74
2023/08/20 07:30:30;;;;;;;3.72;2.88;;;;;;;;;;4904061;29;20043;-74
2023/08/20 07:32:55;;;;;;;6.85;2.88;;;;;;;;;;4923826;28;20569;-74
2023/08/20 07:35:20;;;;;;;7.88;2.97;;;;;;;;;;4922870;29;20050;-72
2023/08/20 07:37:47;;;;;;;8.88;3.38;;;;;;;;;;4922177;28;20417;-73
2023/08/20 07:40:15;;;;;;;6.05;2.58;;;;;;;;;;4923987;29;20199;-75
2023/08/20 07:42:41;;;;;;;3.25;2.70;;;;;;;;;;4914233;29;20047;-73
2023/08/20 07:45:07;;;;;;;7.50;3.10;;;;;;;;;;4922991;28;20040;-72
2023/08/20 07:47:33;;;;;;;7.70;2.75;;;;;;;;;;4920224;29;20059;-74
2023/08/20 07:49:59;;;;;;;8.00;3.15;;;;;;;;;;4915673;28;20063;-71
2023/08/20 07:52:25;;;;;;;9.30;3.38;;;;;;;;;;4922724;29;20405;-72
2023/08/20 07:54:50;;;;;;;6.03;3.28;;;;;;;;;;4905623;29;20060;-73
2023/08/20 07:57:16;;;;;;;4.05;2.92;;;;;;;;;;4904900;29;20050;-72
2023/08/20 07:59:41;;;;;;;6.10;3.22;;;;;;;;;;4922123;29;20483;-71
2023/08/20 08:02:07;;;;;;;6.07;3.33;;;;;;;;;;4922432;28;20463;-72
2023/08/20 08:04:33;;;;;;;4.10;2.80;;;;;;;;;;4922760;29;20441;-73
2023/08/20 08:06:59;;;;;;;5.07;2.85;;;;;;;;;;4922716;29;20063;-74
2023/08/20 08:09:29;;;;;;;4.43;3.10;;;;;;;;;;4921521;28;20051;-73
2023/08/20 08:11:55;;;;;;;5.50;3.30;;;;;;;;;;4922128;29;20082;-72
2023/08/20 08:14:21;;;;;;;6.00;3.13;;;;;;;;;;4920114;28;20061;-72
2023/08/20 08:16:47;;;;;;;8.23;3.05;;;;;;;;;;4922003;29;20127;-73
2023/08/20 08:19:13;;;;;;;4.55;3.38;;;;;;;;;;4922120;29;20146;-72
2023/08/20 08:21:39;;;;;;;6.35;3.30;;;;;;;;;;4920271;29;20059;-71
2023/08/20 08:24:04;;;;;;;6.68;3.17;;;;;;;;;;4922254;29;20047;-72
2023/08/20 08:26:31;;;;;;;2.90;2.42;;;;;;;;;;4921911;28;20544;-74
2023/08/20 08:28:56;;;;;;;6.03;2.58;;;;;;;;;;4922173;29;20500;-74
2023/08/20 08:31:21;;;;;;;4.40;2.95;;;;;;;;;;4920470;28;20513;-73
2023/08/20 08:33:47;;;;;;;7.75;3.10;;;;;;;;;;4921726;29;20063;-71
2023/08/20 08:36:12;;;;;;;4.88;2.90;;;;;;;;;;4921971;29;20051;-72
2023/08/20 08:38:38;;;;;;;4.53;3.00;;;;;;;;;;4921842;28;20054;-72
2023/08/20 08:41:10;;;;;;;3.78;2.80;;;;;;;;;;4921659;29;20043;-74
2023/08/20 08:43:35;;;;;;;11.85;2.95;;;;;;;;;;4920536;28;20153;-73
2023/08/20 08:46:03;;;;;;;6.13;3.03;;;;;;;;;;4922169;29;20063;-72
2023/08/20 08:48:29;;;;;;;11.75;3.08;;;;;;;;;;4920532;29;20043;-71
2023/08/20 08:50:55;;;;;;;4.05;2.70;;;;;;;;;;4920373;28;20048;-71
2023/08/20 08:53:24;;;;;;;11.52;3.33;;;;;;;;;;4919530;29;20044;-71
2023/08/20 08:55:49;;;;;;;12.15;3.28;;;;;;;;;;4921621;28;20055;-71
2023/08/20 08:58:15;;;;;;;4.10;2.90;;;;;;;;;;4921613;29;20046;-72
2023/08/20 09:00:41;;;;;;;3.90;3.10;;;;;;;;;;4921248;29;20051;-71
2023/08/20 09:03:06;;;;;;;7.75;2.92;;;;;;;;;;4922011;28;20103;-73
2023/08/20 09:05:31;;;;;;;3.38;2.58;;;;;;;;;;4920365;29;20440;-73
2023/08/20 09:07:57;;;;;;;4.70;2.67;;;;;;;;;;4921674;28;20138;-72
2023/08/20 09:10:27;;;;;;;4.90;2.60;;;;;;;;;;4921774;29;20409;-73
2023/08/20 09:12:55;;;;;;;5.63;3.08;;;;;;;;;;4904915;29;20518;-72
2023/08/20 09:15:20;;;;;;;6.43;2.58;;;;;;;;;;4920489;28;20056;-72
2023/08/20 09:17:46;;;;;;;4.65;2.65;;;;;;;;;;4922015;29;20625;-73
2023/08/20 09:20:12;;;;;;;8.15;3.13;;;;;;;;;;4921725;28;20043;-72
2023/08/20 09:22:37;;;;;;;4.97;2.80;;;;;;;;;;4921812;29;20110;-72
2023/08/20 09:25:03;;;;;;;4.65;2.83;;;;;;;;;;4921797;29;20048;-73
2023/08/20 09:27:29;;;;;;;3.20;2.40;;;;;;;;;;4919947;28;20051;-74
2023/08/20 09:29:57;;;;;;;6.78;2.65;;;;;;;;;;4921815;29;20425;-72
2023/08/20 09:32:25;;;;;;;3.40;2.28;;;;;;;;;;4921350;28;20545;-72
2023/08/20 09:34:53;;;;;;;2.97;2.28;;;;;;;;;;4921196;29;20071;-73
2023/08/20 09:37:20;;;;;;;6.85;2.67;;;;;;;;;;4919901;28;20063;-74
2023/08/20 09:39:46;;;;;;;3.67;2.40;;;;;;;;;;4904387;29;20484;-72
2023/08/20 09:42:12;;;;;;;3.50;2.35;;;;;;;;;;4921530;29;20700;-73
2023/08/20 09:44:40;;;;;;;8.18;2.65;;;;;;;;;;4918892;28;20079;-72
2023/08/20 09:47:10;;;;;;;4.22;2.75;;;;;;;;;;4919457;29;20058;-72
2023/08/20 09:49:41;;;;;;;3.67;2.58;;;;;;;;;;4903257;28;20047;-73
2023/08/20 09:52:09;;;;;;;4.53;2.17;;;;;;;;;;4921576;29;20079;-73
2023/08/20 09:55:07;;;;;;;5.70;2.47;;;;;;;;;;4920903;29;20416;-72
2023/08/20 09:57:35;;;;;;;5.03;2.40;;;;;;;;;;4895636;29;20459;-72
2023/08/20 10:00:03;;;;;;;3.30;2.70;;;;;;;;;;4920343;29;20040;-72
2023/08/20 10:02:39;;;;;;;4.95;2.80;;;;;;;;;;4914429;28;20047;-71
2023/08/20 10:05:09;;;;;;;4.70;2.28;;;;;;;;;;4921770;29;20052;-71
2023/08/20 10:07:35;;;;;;;2.78;2.20;;;;;;;;;;4921105;28;20052;-71
2023/08/20 10:10:03;;;;;;;5.43;2.42;;;;;;;;;;4920911;29;20051;-71
2023/08/20 10:12:28;;;;;;;3.90;2.70;;;;;;;;;;4923141;29;20456;-72
2023/08/20 10:14:55;;;;;;;9.45;2.40;;;;;;;;;;4924398;28;20489;-71
2023/08/20 10:17:22;;;;;;;2.78;2.30;;;;;;;;;;4919494;29;20142;-71
2023/08/20 10:19:48;;;;;;;7.95;2.42;;;;;;;;;;4924566;29;20054;-71
2023/08/20 10:22:13;;;;;;;2.95;2.40;;;;;;;;;;4923111;28;20048;-71
2023/08/20 10:24:48;;;;;;;4.30;2.50;;;;;;;;;;4924183;29;20187;-71
2023/08/20 10:27:25;;;;;;;5.20;2.28;;;;;;;;;;4926363;28;20052;-75
2023/08/20 10:29:52;;;;;;;3.63;2.33;;;;;;;;;;4929002;29;20476;-71
2023/08/20 10:32:18;;;;;;;5.32;2.53;;;;;;;;;;4923010;29;20471;-72
2023/08/20 10:34:50;;;;;;;3.53;2.55;;;;;;;;;;4924299;28;20632;-71
2023/08/20 10:37:15;;;;;;;2.75;2.40;;;;;;;;;;4924731;29;20517;-72
2023/08/20 10:39:45;;;;;;;4.30;2.40;;;;;;;;;;4924278;28;20126;-71
2023/08/20 10:42:16;;;;;;;3.50;2.40;;;;;;;;;;4923791;29;20055;-71
2023/08/20 10:45:00;;;;;;;4.85;2.70;;;;;;;;;;4905882;29;20055;-71
2023/08/20 10:47:44;;;;;;;3.28;2.47;;;;;;;;;;4923348;28;20488;-72
2023/08/20 10:50:12;;;;;;;3.45;2.72;;;;;;;;;;4923596;29;20513;-72
2023/08/20 10:52:41;;;;;;;2.80;2.55;;;;;;;;;;4918409;28;20056;-71
2023/08/20 10:55:11;;;;;;;4.57;2.63;;;;;;;;;;4920827;29;20433;-72
2023/08/20 10:57:36;;;;;;;2.75;2.45;;;;;;;;;;4920458;28;20101;-72
2023/08/20 11:00:11;;;;;;;3.30;2.63;;;;;;;;;;4920489;29;20071;-72
2023/08/20 11:02:38;;;;;;;2.95;2.65;;;;;;;;;;4920623;29;20074;-71
2023/08/20 11:05:04;;;;;;;3.13;2.50;;;;;;;;;;4918672;29;20394;-71
2023/08/20 11:07:31;;;;;;;2.47;2.05;;;;;;;;;;4918859;29;20106;-72
2023/08/20 11:09:57;;;;;;;3.83;2.55;;;;;;;;;;4905686;29;20043;-72
2023/08/20 11:12:23;;;;;;;4.18;3.10;;;;;;;;;;4902999;29;20039;-71
2023/08/20 11:14:49;;;;;;;3.78;2.58;;;;;;;;;;4920576;29;20138;-71
2023/08/20 11:17:15;;;;;;;3.75;2.35;;;;;;;;;;4919937;29;20056;-72
2023/08/20 11:19:40;;;;;;;3.80;2.72;;;;;;;;;;4919877;29;20191;-72
2023/08/20 11:22:05;;;;;;;3.15;2.58;;;;;;;;;;4920378;29;20126;-71
2023/08/20 11:24:32;;;;;;;2.92;2.42;;;;;;;;;;4903740;29;20059;-71
2023/08/20 11:26:58;;;;;;;2.60;2.40;;;;;;;;;;4922550;29;20055;-71
2023/08/20 11:29:25;;;;;;;4.55;2.58;;;;;;;;;;4918822;28;20058;-71
2023/08/20 11:31:51;;;;;;;3.53;2.50;;;;;;;;;;4921365;29;21214;-72
2023/08/20 11:34:20;;;;;;;4.03;2.30;;;;;;;;;;4914659;28;20047;-72
2023/08/20 11:36:45;;;;;;;4.22;2.50;;;;;;;;;;4918089;29;20215;-72
2023/08/20 11:39:11;;;;;;;4.78;2.58;;;;;;;;;;4919984;29;20113;-72
2023/08/20 11:41:38;;;;;;;4.18;2.80;;;;;;;;;;4919770;28;20043;-72
2023/08/20 11:44:04;;;;;;;6.13;2.58;;;;;;;;;;4921333;29;20119;-72
2023/08/20 11:46:29;;;;;;;5.35;2.72;;;;;;;;;;4920053;28;20461;-71
2023/08/20 11:49:08;;;;;;;2.92;2.63;;;;;;;;;;4904395;29;20126;-72
2023/08/20 11:51:39;;;;;;;2.58;2.38;;;;;;;;;;4918726;29;20047;-75
2023/08/20 11:54:10;;;;;;;3.08;2.80;;;;;;;;;;4921731;29;20087;-75
2023/08/20 11:56:43;;;;;;;3.85;2.53;;;;;;;;;;4920130;28;20063;-77
2023/08/20 11:59:10;;;;;;;3.38;2.65;;;;;;;;;;4921432;29;20078;-77
2023/08/20 12:01:35;;;;;;;3.47;2.53;;;;;;;;;;4901485;28;20047;-77
2023/08/20 12:04:04;;;;;;;2.20;2.10;;;;;;;;;;4921779;29;20050;-78
2023/08/20 12:06:30;;;;;;;3.53;2.50;;;;;;;;;;4920585;29;20194;-77
2023/08/20 12:08:57;;;;;;;4.45;2.35;;;;;;;;;;4922546;28;20062;-80
2023/08/20 12:11:29;;;;;;;4.25;2.80;;;;;;;;;;4921302;29;20988;-76
2023/08/20 12:13:55;;;;;;;5.45;2.40;;;;;;;;;;4923028;28;20047;-77
2023/08/20 12:16:23;;;;;;;2.50;2.30;;;;;;;;;;4925681;29;20148;-77
2023/08/20 12:18:49;;;;;;;2.83;2.50;;;;;;;;;;4929927;29;20054;-76
2023/08/20 12:21:15;;;;;;;2.95;2.50;;;;;;;;;;4925686;28;20047;-77
2023/08/20 12:23:41;;;;;;;3.00;2.70;;;;;;;;;;4922483;29;20056;-77
2023/08/20 12:26:07;;;;;;;5.70;2.60;;;;;;;;;;4923032;28;20055;-76
2023/08/20 12:28:34;;;;;;;5.43;2.72;;;;;;;;;;4925713;29;20055;-78
2023/08/20 12:30:59;;;;;;;3.90;2.50;;;;;;;;;;4923995;29;20078;-77
2023/08/20 12:33:25;;;;;;;4.78;2.40;;;;;;;;;;4922871;28;20143;-78
2023/08/20 12:35:54;;;;;;;2.80;2.40;;;;;;;;;;4923681;29;20082;-76
2023/08/20 12:38:19;;;;;;;3.28;2.60;;;;;;;;;;4922753;28;20054;-76
2023/08/20 12:40:45;;;;;;;5.13;2.40;;;;;;;;;;4922510;29;20047;-78
2023/08/20 12:43:10;;;;;;;4.80;2.33;;;;;;;;;;4922480;29;20449;-77
2023/08/20 12:45:36;;;;;;;5.97;2.20;;;;;;;;;;4921228;28;20062;-79
2023/08/20 12:48:03;;;;;;;4.22;2.10;;;;;;;;;;4922575;29;20044;-77
2023/08/20 12:50:29;;;;;;;2.85;2.47;;;;;;;;;;4922272;28;20493;-73
2023/08/20 12:52:54;;;;;;;4.68;2.58;;;;;;;;;;4922458;29;20058;-80
2023/08/20 12:55:19;;;;;;;3.15;2.40;;;;;;;;;;4921541;28;20055;-77
2023/08/20 12:57:56;;;;;;;4.68;2.53;;;;;;;;;;4922674;29;20055;-77
2023/08/20 13:00:24;;;;;;;3.63;2.20;;;;;;;;;;4922606;29;20039;-77
2023/08/20 13:02:50;;;;;;;2.60;2.40;;;;;;;;;;4921931;28;20051;-76
2023/08/20 13:05:16;;;;;;;4.80;2.38;;;;;;;;;;4921709;29;20043;-75
2023/08/20 13:07:42;;;;;;;3.38;2.58;;;;;;;;;;4921599;28;20466;-76
2023/08/20 13:10:08;;;;;;;6.22;2.83;;;;;;;;;;4922250;29;20089;-75
2023/08/20 13:12:34;;;;;;;2.25;2.08;;;;;;;;;;4904871;29;20143;-75
2023/08/20 13:14:59;;;;;;;3.50;2.60;;;;;;;;;;4922086;28;20396;-76
2023/08/20 13:17:26;;;;;;;6.80;2.50;;;;;;;;;;4920950;29;20056;-77
2023/08/20 13:19:51;;;;;;;3.38;2.67;;;;;;;;;;4921882;28;20043;-77
2023/08/20 13:22:17;;;;;;;4.65;2.58;;;;;;;;;;4905237;29;20058;-76
2023/08/20 13:24:43;;;;;;;2.83;2.25;;;;;;;;;;4922063;29;20131;-77
2023/08/20 13:27:08;;;;;;;2.70;2.50;;;;;;;;;;4924154;28;20134;-75
2023/08/20 13:29:34;;;;;;;2.50;2.30;;;;;;;;;;4927421;29;20054;-77
2023/08/20 13:32:00;;;;;;;4.68;2.70;;;;;;;;;;4908232;29;20062;-79
2023/08/20 13:34:26;;;;;;;4.47;2.65;;;;;;;;;;4922845;29;20051;-77
2023/08/20 13:36:51;;;;;;;3.42;2.70;;;;;;;;;;4923013;29;20063;-79
2023/08/20 13:39:18;;;;;;;3.78;2.47;;;;;;;;;;4921172;28;20055;-74
2023/08/20 13:41:44;;;;;;;5.85;2.67;;;;;;;;;;4921683;29;20076;-74
2023/08/20 13:44:09;;;;;;;4.25;2.65;;;;;;;;;;4922063;28;20055;-75
2023/08/20 13:46:34;;;;;;;5.53;2.70;;;;;;;;;;4923829;29;20070;-76
2023/08/20 13:49:00;;;;;;;2.70;2.50;;;;;;;;;;4925587;29;20587;-76
2023/08/20 13:51:25;;;;;;;6.60;2.63;;;;;;;;;;4923322;28;20421;-76
2023/08/20 13:53:51;;;;;;;3.53;2.50;;;;;;;;;;4925574;29;20057;-75
2023/08/20 13:56:16;;;;;;;2.70;2.50;;;;;;;;;;4925274;28;20051;-77
2023/08/20 13:58:42;;;;;;;2.60;2.33;;;;;;;;;;4925950;29;20063;-76
2023/08/20 14:01:07;;;;;;;2.78;2.38;;;;;;;;;;4925030;29;20088;-75
2023/08/20 14:03:32;;;;;;;2.42;2.22;;;;;;;;;;4923817;29;20090;-78
2023/08/20 14:05:58;;;;;;;2.85;2.65;;;;;;;;;;4925293;29;20437;-76
2023/08/20 14:08:23;;;;;;;6.03;2.42;;;;;;;;;;4925539;28;20208;-77
2023/08/20 14:10:48;;;;;;;3.70;2.83;;;;;;;;;;4925052;29;20043;-78
2023/08/20 14:13:14;;;;;;;4.75;2.78;;;;;;;;;;4924800;29;20627;-76
2023/08/20 14:15:40;;;;;;;2.78;2.30;;;;;;;;;;4907564;29;20204;-77
2023/08/20 14:18:05;;;;;;;3.00;2.38;;;;;;;;;;4925180;29;20055;-78
2023/08/20 14:20:31;;;;;;;2.47;2.28;;;;;;;;;;4926754;28;20086;-75
2023/08/20 14:22:56;;;;;;;2.60;2.40;;;;;;;;;;4924786;29;21003;-76
2023/08/20 14:25:22;;;;;;;3.08;2.47;;;;;;;;;;4924584;28;20098;-78
2023/08/20 14:27:47;;;;;;;3.65;2.50;;;;;;;;;;4925200;29;20062;-76
2023/08/20 14:30:13;;;;;;;6.47;2.80;;;;;;;;;;4907768;29;20055;-76
2023/08/20 14:32:38;;;;;;;2.78;2.50;;;;;;;;;;4907442;29;20052;-78
2023/08/20 14:35:04;;;;;;;2.47;2.28;;;;;;;;;;4924261;29;20545;-76
2023/08/20 14:37:30;;;;;;;4.63;2.50;;;;;;;;;;4923500;28;20070;-77
2023/08/20 14:39:55;;;;;;;3.90;2.47;;;;;;;;;;4924660;29;20047;-75
2023/08/20 14:42:20;;;;;;;3.00;2.53;;;;;;;;;;4924478;29;20060;-75